sensor_id;sensor_type;location;lat;lon;timestamp;P1;durP1;ratioP1;P2;durP2;ratioP2
19836;SDS011;10079;55.740;37.662;2023-05-25T00:06:19;19.43;;;12.70;;
19836;SDS011;10079;55.740;37.662;2023-05-25T00:09:20;17.70;;;12.97;;
19836;SDS011;10079;55.740;37.662;2023-05-25T00:12:20;24.87;;;12.87;;
19836;SDS011;10079;55.740;37.662;2023-05-25T00:15:05;19.90;;;13.10;;
19836;SDS011;10079;55.740;37.662;2023-05-25T00:17:56;18.93;;;12.93;;
19836;SDS011;10079;55.740;37.662;2023-05-25T00:20:40;25.33;;;13.30;;
19836;SDS011;10079;55.740;37.662;2023-05-25T00:23:29;22.03;;;13.60;;
19836;SDS011;10079;55.740;37.662;2023-05-25T00:26:10;21.90;;;13.87;;
19836;SDS011;10079;55.740;37.662;2023-05-25T00:39:26;22.20;;;13.17;;
19836;SDS011;10079;55.740;37.662;2023-05-25T00:42:07;19.70;;;12.87;;
19836;SDS011;10079;55.740;37.662;2023-05-25T00:44:48;21.17;;;13.60;;
19836;SDS011;10079;55.740;37.662;2023-05-25T00:58:03;23.13;;;14.03;;
19836;SDS011;10079;55.740;37.662;2023-05-25T01:00:44;21.60;;;13.83;;
19836;SDS011;10079;55.740;37.662;2023-05-25T01:03:30;23.70;;;14.53;;
19836;SDS011;10079;55.740;37.662;2023-05-25T01:06:12;26.50;;;15.30;;
19836;SDS011;10079;55.740;37.662;2023-05-25T01:08:57;20.60;;;14.33;;
19836;SDS011;10079;55.740;37.662;2023-05-25T01:11:48;23.10;;;13.87;;
19836;SDS011;10079;55.740;37.662;2023-05-25T01:14:28;25.30;;;14.80;;
19836;SDS011;10079;55.740;37.662;2023-05-25T01:17:09;22.67;;;15.17;;
19836;SDS011;10079;55.740;37.662;2023-05-25T01:19:50;26.43;;;16.13;;
19836;SDS011;10079;55.740;37.662;2023-05-25T01:22:34;22.77;;;14.77;;
19836;SDS011;10079;55.740;37.662;2023-05-25T01:25:21;27.27;;;15.67;;
19836;SDS011;10079;55.740;37.662;2023-05-25T01:28:03;25.40;;;15.07;;
19836;SDS011;10079;55.740;37.662;2023-05-25T01:30:45;21.93;;;15.20;;
19836;SDS011;10079;55.740;37.662;2023-05-25T01:33:32;22.83;;;15.87;;
19836;SDS011;10079;55.740;37.662;2023-05-25T01:36:25;27.83;;;16.50;;
19836;SDS011;10079;55.740;37.662;2023-05-25T01:39:07;30.13;;;16.73;;
19836;SDS011;10079;55.740;37.662;2023-05-25T01:41:59;26.07;;;16.70;;
19836;SDS011;10079;55.740;37.662;2023-05-25T01:44:41;29.33;;;16.77;;
19836;SDS011;10079;55.740;37.662;2023-05-25T01:47:28;21.47;;;16.60;;
19836;SDS011;10079;55.740;37.662;2023-05-25T01:50:14;23.27;;;16.77;;
19836;SDS011;10079;55.740;37.662;2023-05-25T01:52:56;24.07;;;16.37;;
19836;SDS011;10079;55.740;37.662;2023-05-25T01:55:48;22.27;;;16.20;;
19836;SDS011;10079;55.740;37.662;2023-05-25T01:58:28;28.13;;;16.23;;
19836;SDS011;10079;55.740;37.662;2023-05-25T02:22:38;25.50;;;15.70;;
19836;SDS011;10079;55.740;37.662;2023-05-25T02:25:22;27.10;;;16.63;;
19836;SDS011;10079;55.740;37.662;2023-05-25T02:38:50;22.57;;;15.77;;
19836;SDS011;10079;55.740;37.662;2023-05-25T02:41:35;24.30;;;15.97;;
19836;SDS011;10079;55.740;37.662;2023-05-25T02:44:24;22.23;;;15.37;;
19836;SDS011;10079;55.740;37.662;2023-05-25T02:47:17;22.60;;;16.37;;
19836;SDS011;10079;55.740;37.662;2023-05-25T02:50:09;23.17;;;15.97;;
19836;SDS011;10079;55.740;37.662;2023-05-25T02:52:50;24.90;;;15.80;;
19836;SDS011;10079;55.740;37.662;2023-05-25T02:55:34;19.67;;;15.27;;
19836;SDS011;10079;55.740;37.662;2023-05-25T02:58:27;21.37;;;15.47;;
19836;SDS011;10079;55.740;37.662;2023-05-25T03:01:20;22.53;;;16.77;;
19836;SDS011;10079;55.740;37.662;2023-05-25T03:04:01;25.87;;;16.60;;
19836;SDS011;10079;55.740;37.662;2023-05-25T03:17:23;21.53;;;15.90;;
19836;SDS011;10079;55.740;37.662;2023-05-25T03:20:05;24.60;;;17.00;;
19836;SDS011;10079;55.740;37.662;2023-05-25T03:22:47;19.30;;;15.20;;
19836;SDS011;10079;55.740;37.662;2023-05-25T03:25:40;24.23;;;16.33;;
19836;SDS011;10079;55.740;37.662;2023-05-25T03:28:29;25.63;;;16.10;;
19836;SDS011;10079;55.740;37.662;2023-05-25T03:31:22;18.60;;;15.43;;
19836;SDS011;10079;55.740;37.662;2023-05-25T03:34:03;19.23;;;14.77;;
19836;SDS011;10079;55.740;37.662;2023-05-25T03:36:44;16.12;;;14.50;;
19836;SDS011;10079;55.740;37.662;2023-05-25T03:39:28;19.95;;;14.15;;
19836;SDS011;10079;55.740;37.662;2023-05-25T03:42:09;18.80;;;14.73;;
19836;SDS011;10079;55.740;37.662;2023-05-25T03:44:50;18.55;;;14.85;;
19836;SDS011;10079;55.740;37.662;2023-05-25T03:47:31;22.37;;;16.23;;
19836;SDS011;10079;55.740;37.662;2023-05-25T03:50:12;20.37;;;15.00;;
19836;SDS011;10079;55.740;37.662;2023-05-25T03:52:56;20.83;;;15.53;;
19836;SDS011;10079;55.740;37.662;2023-05-25T03:55:40;19.70;;;15.07;;
19836;SDS011;10079;55.740;37.662;2023-05-25T03:58:24;16.40;;;14.60;;
19836;SDS011;10079;55.740;37.662;2023-05-25T04:01:05;17.60;;;14.82;;
19836;SDS011;10079;55.740;37.662;2023-05-25T04:03:49;22.85;;;14.25;;
19836;SDS011;10079;55.740;37.662;2023-05-25T04:06:30;21.02;;;15.05;;
19836;SDS011;10079;55.740;37.662;2023-05-25T04:09:23;15.98;;;14.27;;
19836;SDS011;10079;55.740;37.662;2023-05-25T04:12:15;19.05;;;15.25;;
19836;SDS011;10079;55.740;37.662;2023-05-25T04:15:08;19.17;;;14.73;;
19836;SDS011;10079;55.740;37.662;2023-05-25T04:17:50;21.05;;;15.57;;
19836;SDS011;10079;55.740;37.662;2023-05-25T04:20:31;23.17;;;14.93;;
19836;SDS011;10079;55.740;37.662;2023-05-25T04:33:48;20.60;;;16.00;;
19836;SDS011;10079;55.740;37.662;2023-05-25T04:36:29;19.40;;;15.90;;
19836;SDS011;10079;55.740;37.662;2023-05-25T04:39:10;17.42;;;14.25;;
19836;SDS011;10079;55.740;37.662;2023-05-25T04:41:50;20.83;;;15.23;;
19836;SDS011;10079;55.740;37.662;2023-05-25T04:44:31;15.27;;;13.57;;
19836;SDS011;10079;55.740;37.662;2023-05-25T04:47:12;17.65;;;13.40;;
19836;SDS011;10079;55.740;37.662;2023-05-25T04:49:56;17.65;;;12.68;;
19836;SDS011;10079;55.740;37.662;2023-05-25T04:52:37;17.35;;;13.15;;
19836;SDS011;10079;55.740;37.662;2023-05-25T04:55:18;13.30;;;11.90;;
19836;SDS011;10079;55.740;37.662;2023-05-25T04:57:58;15.27;;;13.48;;
19836;SDS011;10079;55.740;37.662;2023-05-25T05:00:39;15.00;;;12.30;;
19836;SDS011;10079;55.740;37.662;2023-05-25T05:03:20;14.90;;;11.27;;
19836;SDS011;10079;55.740;37.662;2023-05-25T05:06:01;14.60;;;12.45;;
19836;SDS011;10079;55.740;37.662;2023-05-25T05:08:45;17.77;;;12.70;;
19836;SDS011;10079;55.740;37.662;2023-05-25T05:11:29;12.75;;;11.45;;
19836;SDS011;10079;55.740;37.662;2023-05-25T05:24:44;18.48;;;15.82;;
19836;SDS011;10079;55.740;37.662;2023-05-25T05:27:25;14.52;;;13.00;;
19836;SDS011;10079;55.740;37.662;2023-05-25T05:30:14;17.62;;;13.45;;
19836;SDS011;10079;55.740;37.662;2023-05-25T05:32:58;15.15;;;12.40;;
19836;SDS011;10079;55.740;37.662;2023-05-25T05:35:43;17.37;;;14.07;;
19836;SDS011;10079;55.740;37.662;2023-05-25T05:38:32;19.37;;;15.93;;
19836;SDS011;10079;55.740;37.662;2023-05-25T05:41:25;22.45;;;15.30;;
19836;SDS011;10079;55.740;37.662;2023-05-25T05:44:06;18.65;;;14.60;;
19836;SDS011;10079;55.740;37.662;2023-05-25T05:46:50;16.45;;;13.52;;
19836;SDS011;10079;55.740;37.662;2023-05-25T05:49:34;23.58;;;14.77;;
19836;SDS011;10079;55.740;37.662;2023-05-25T05:52:27;19.17;;;14.63;;
19836;SDS011;10079;55.740;37.662;2023-05-25T05:55:19;17.45;;;13.93;;
19836;SDS011;10079;55.740;37.662;2023-05-25T06:08:39;21.27;;;16.42;;
19836;SDS011;10079;55.740;37.662;2023-05-25T06:22:00;18.33;;;14.15;;
19836;SDS011;10079;55.740;37.662;2023-05-25T06:24:44;18.27;;;13.73;;
19836;SDS011;10079;55.740;37.662;2023-05-25T06:46:22;17.67;;;14.63;;
19836;SDS011;10079;55.740;37.662;2023-05-25T06:49:09;16.27;;;13.60;;
19836;SDS011;10079;55.740;37.662;2023-05-25T06:51:53;19.77;;;14.27;;
19836;SDS011;10079;55.740;37.662;2023-05-25T06:54:46;17.63;;;13.80;;
19836;SDS011;10079;55.740;37.662;2023-05-25T06:57:39;18.50;;;14.47;;
19836;SDS011;10079;55.740;37.662;2023-05-25T07:00:31;14.07;;;11.80;;
19836;SDS011;10079;55.740;37.662;2023-05-25T07:03:12;17.30;;;14.90;;
19836;SDS011;10079;55.740;37.662;2023-05-25T07:05:52;18.37;;;15.87;;
19836;SDS011;10079;55.740;37.662;2023-05-25T07:08:33;19.50;;;16.00;;
19836;SDS011;10079;55.740;37.662;2023-05-25T07:11:14;17.90;;;14.87;;
19836;SDS011;10079;55.740;37.662;2023-05-25T07:14:06;16.60;;;13.70;;
19836;SDS011;10079;55.740;37.662;2023-05-25T07:27:18;18.40;;;15.60;;
19836;SDS011;10079;55.740;37.662;2023-05-25T07:29:58;23.45;;;15.93;;
19836;SDS011;10079;55.740;37.662;2023-05-25T07:32:43;23.07;;;16.03;;
19836;SDS011;10079;55.740;37.662;2023-05-25T07:35:27;18.57;;;15.17;;
19836;SDS011;10079;55.740;37.662;2023-05-25T07:38:08;21.13;;;17.03;;
19836;SDS011;10079;55.740;37.662;2023-05-25T07:40:49;19.57;;;15.83;;
19836;SDS011;10079;55.740;37.662;2023-05-25T07:43:30;23.97;;;17.87;;
19836;SDS011;10079;55.740;37.662;2023-05-25T07:46:22;22.47;;;17.63;;
19836;SDS011;10079;55.740;37.662;2023-05-25T07:49:03;20.73;;;16.73;;
19836;SDS011;10079;55.740;37.662;2023-05-25T07:51:45;20.90;;;16.83;;
19836;SDS011;10079;55.740;37.662;2023-05-25T07:54:26;21.10;;;17.60;;
19836;SDS011;10079;55.740;37.662;2023-05-25T07:57:06;24.90;;;18.87;;
19836;SDS011;10079;55.740;37.662;2023-05-25T07:59:51;26.77;;;18.17;;
19836;SDS011;10079;55.740;37.662;2023-05-25T08:02:35;23.73;;;17.10;;
19836;SDS011;10079;55.740;37.662;2023-05-25T08:05:19;24.40;;;18.60;;
19836;SDS011;10079;55.740;37.662;2023-05-25T08:08:12;22.77;;;19.23;;
19836;SDS011;10079;55.740;37.662;2023-05-25T08:10:53;24.77;;;19.33;;
19836;SDS011;10079;55.740;37.662;2023-05-25T08:13:46;27.37;;;20.53;;
19836;SDS011;10079;55.740;37.662;2023-05-25T08:26:57;26.30;;;20.83;;
19836;SDS011;10079;55.740;37.662;2023-05-25T08:29:50;28.70;;;22.05;;
19836;SDS011;10079;55.740;37.662;2023-05-25T08:32:30;25.42;;;21.37;;
19836;SDS011;10079;55.740;37.662;2023-05-25T08:35:12;26.67;;;21.35;;
19836;SDS011;10079;55.740;37.662;2023-05-25T08:37:53;21.67;;;18.73;;
19836;SDS011;10079;55.740;37.662;2023-05-25T08:51:10;34.50;;;25.20;;
19836;SDS011;10079;55.740;37.662;2023-05-25T08:53:50;31.02;;;24.70;;
19836;SDS011;10079;55.740;37.662;2023-05-25T08:56:33;29.35;;;24.27;;
19836;SDS011;10079;55.740;37.662;2023-05-25T08:59:21;32.63;;;25.23;;
19836;SDS011;10079;55.740;37.662;2023-05-25T09:02:14;31.93;;;24.13;;
19836;SDS011;10079;55.740;37.662;2023-05-25T09:04:54;31.43;;;25.60;;
19836;SDS011;10079;55.740;37.662;2023-05-25T09:07:34;31.70;;;26.27;;
19836;SDS011;10079;55.740;37.662;2023-05-25T09:10:15;33.30;;;26.03;;
19836;SDS011;10079;55.740;37.662;2023-05-25T09:12:56;42.00;;;30.30;;
19836;SDS011;10079;55.740;37.662;2023-05-25T09:15:37;36.93;;;28.83;;
19836;SDS011;10079;55.740;37.662;2023-05-25T09:18:18;35.60;;;29.50;;
19836;SDS011;10079;55.740;37.662;2023-05-25T09:20:59;38.20;;;31.03;;
19836;SDS011;10079;55.740;37.662;2023-05-25T09:23:42;42.40;;;33.23;;
19836;SDS011;10079;55.740;37.662;2023-05-25T09:26:29;42.10;;;33.67;;
19836;SDS011;10079;55.740;37.662;2023-05-25T09:29:11;47.00;;;35.20;;
19836;SDS011;10079;55.740;37.662;2023-05-25T09:42:33;58.87;;;44.67;;
19836;SDS011;10079;55.740;37.662;2023-05-25T09:45:14;55.87;;;41.93;;
19836;SDS011;10079;55.740;37.662;2023-05-25T09:47:55;64.17;;;43.80;;
19836;SDS011;10079;55.740;37.662;2023-05-25T09:50:36;48.00;;;37.57;;
19836;SDS011;10079;55.740;37.662;2023-05-25T09:53:17;53.97;;;41.70;;
19836;SDS011;10079;55.740;37.662;2023-05-25T10:06:29;74.70;;;53.23;;
19836;SDS011;10079;55.740;37.662;2023-05-25T10:09:22;48.00;;;36.40;;
19836;SDS011;10079;55.740;37.662;2023-05-25T10:12:02;60.77;;;40.90;;
19836;SDS011;10079;55.740;37.662;2023-05-25T10:14:44;51.90;;;39.57;;
19836;SDS011;10079;55.740;37.662;2023-05-25T10:17:25;55.10;;;40.90;;
19836;SDS011;10079;55.740;37.662;2023-05-25T10:20:06;52.63;;;40.47;;
19836;SDS011;10079;55.740;37.662;2023-05-25T10:22:50;56.03;;;42.37;;
19836;SDS011;10079;55.740;37.662;2023-05-25T10:25:31;56.83;;;42.20;;
19836;SDS011;10079;55.740;37.662;2023-05-25T10:28:28;58.23;;;42.40;;
19836;SDS011;10079;55.740;37.662;2023-05-25T10:31:08;57.77;;;43.77;;
19836;SDS011;10079;55.740;37.662;2023-05-25T10:33:49;61.00;;;43.27;;
19836;SDS011;10079;55.740;37.662;2023-05-25T10:36:29;47.30;;;35.17;;
19836;SDS011;10079;55.740;37.662;2023-05-25T10:39:10;50.20;;;38.10;;
19836;SDS011;10079;55.740;37.662;2023-05-25T10:41:54;46.30;;;36.13;;
19836;SDS011;10079;55.740;37.662;2023-05-25T10:44:35;51.87;;;37.93;;
19836;SDS011;10079;55.740;37.662;2023-05-25T10:47:20;40.67;;;32.27;;
19836;SDS011;10079;55.740;37.662;2023-05-25T10:50:04;45.57;;;34.57;;
19836;SDS011;10079;55.740;37.662;2023-05-25T10:52:57;37.97;;;30.03;;
19836;SDS011;10079;55.740;37.662;2023-05-25T10:58:47;32.47;;;25.47;;
19836;SDS011;10079;55.740;37.662;2023-05-25T11:01:48;31.97;;;24.80;;
19836;SDS011;10079;55.740;37.662;2023-05-25T11:04:16;27.20;;;22.63;;
19836;SDS011;10079;55.740;37.662;2023-05-25T11:07:03;25.33;;;20.83;;
19836;SDS011;10079;55.740;37.662;2023-05-25T11:09:55;23.40;;;19.60;;
19836;SDS011;10079;55.740;37.662;2023-05-25T11:12:36;28.50;;;22.90;;
19836;SDS011;10079;55.740;37.662;2023-05-25T11:15:20;25.37;;;21.37;;
19836;SDS011;10079;55.740;37.662;2023-05-25T11:18:01;24.77;;;20.97;;
19836;SDS011;10079;55.740;37.662;2023-05-25T11:20:45;27.67;;;23.43;;
19836;SDS011;10079;55.740;37.662;2023-05-25T11:23:29;29.07;;;24.37;;
19836;SDS011;10079;55.740;37.662;2023-05-25T11:26:23;26.43;;;23.63;;
19836;SDS011;10079;55.740;37.662;2023-05-25T11:29:16;22.50;;;19.13;;
19836;SDS011;10079;55.740;37.662;2023-05-25T11:32:10;27.30;;;23.83;;
19836;SDS011;10079;55.740;37.662;2023-05-25T11:35:03;26.23;;;22.43;;
19836;SDS011;10079;55.740;37.662;2023-05-25T11:37:56;24.77;;;21.87;;
19836;SDS011;10079;55.740;37.662;2023-05-25T11:40:49;23.10;;;19.20;;
19836;SDS011;10079;55.740;37.662;2023-05-25T11:43:33;23.17;;;18.70;;
19836;SDS011;10079;55.740;37.662;2023-05-25T11:46:17;27.85;;;24.83;;
19836;SDS011;10079;55.740;37.662;2023-05-25T11:48:59;26.90;;;21.67;;
19836;SDS011;10079;55.740;37.662;2023-05-25T12:02:13;28.62;;;23.95;;
19836;SDS011;10079;55.740;37.662;2023-05-25T12:05:03;30.85;;;25.90;;
19836;SDS011;10079;55.740;37.662;2023-05-25T12:07:48;29.12;;;24.80;;
19836;SDS011;10079;55.740;37.662;2023-05-25T12:10:47;29.27;;;23.77;;
19836;SDS011;10079;55.740;37.662;2023-05-25T12:13:29;29.65;;;25.48;;
19836;SDS011;10079;55.740;37.662;2023-05-25T12:16:10;25.58;;;21.70;;
19836;SDS011;10079;55.740;37.662;2023-05-25T12:18:54;31.23;;;25.48;;
19836;SDS011;10079;55.740;37.662;2023-05-25T12:21:47;23.75;;;19.85;;
19836;SDS011;10079;55.740;37.662;2023-05-25T12:24:27;28.00;;;21.83;;
19836;SDS011;10079;55.740;37.662;2023-05-25T12:29:57;25.15;;;19.15;;
19836;SDS011;10079;55.740;37.662;2023-05-25T12:35:43;25.30;;;21.12;;
19836;SDS011;10079;55.740;37.662;2023-05-25T12:38:37;24.15;;;21.55;;
19836;SDS011;10079;55.740;37.662;2023-05-25T12:41:18;24.35;;;20.90;;
19836;SDS011;10079;55.740;37.662;2023-05-25T12:43:59;23.60;;;20.62;;
19836;SDS011;10079;55.740;37.662;2023-05-25T12:46:39;26.02;;;22.17;;
19836;SDS011;10079;55.740;37.662;2023-05-25T12:49:21;20.55;;;18.35;;
19836;SDS011;10079;55.740;37.662;2023-05-25T13:02:33;22.92;;;19.77;;
19836;SDS011;10079;55.740;37.662;2023-05-25T13:05:16;23.70;;;20.55;;
19836;SDS011;10079;55.740;37.662;2023-05-25T13:07:57;23.12;;;19.62;;
19836;SDS011;10079;55.740;37.662;2023-05-25T13:10:38;19.42;;;17.42;;
19836;SDS011;10079;55.740;37.662;2023-05-25T13:19:01;18.50;;;16.52;;
19836;SDS011;10079;55.740;37.662;2023-05-25T13:21:42;15.65;;;13.98;;
19836;SDS011;10079;55.740;37.662;2023-05-25T13:24:23;19.90;;;17.00;;
19836;SDS011;10079;55.740;37.662;2023-05-25T13:27:04;20.23;;;17.35;;
19836;SDS011;10079;55.740;37.662;2023-05-25T13:29:45;21.02;;;17.12;;
19836;SDS011;10079;55.740;37.662;2023-05-25T13:32:26;22.77;;;19.02;;
19836;SDS011;10079;55.740;37.662;2023-05-25T13:35:08;22.30;;;18.45;;
19836;SDS011;10079;55.740;37.662;2023-05-25T13:37:49;18.33;;;16.42;;
19836;SDS011;10079;55.740;37.662;2023-05-25T13:40:33;23.27;;;19.10;;
19836;SDS011;10079;55.740;37.662;2023-05-25T13:43:22;25.03;;;19.73;;
19836;SDS011;10079;55.740;37.662;2023-05-25T13:46:07;23.17;;;18.93;;
19836;SDS011;10079;55.740;37.662;2023-05-25T13:48:56;24.60;;;19.97;;
19836;SDS011;10079;55.740;37.662;2023-05-25T13:51:49;21.17;;;17.23;;
19836;SDS011;10079;55.740;37.662;2023-05-25T14:05:10;28.23;;;22.33;;
19836;SDS011;10079;55.740;37.662;2023-05-25T14:07:54;25.17;;;20.75;;
19836;SDS011;10079;55.740;37.662;2023-05-25T14:10:39;24.83;;;19.25;;
19836;SDS011;10079;55.740;37.662;2023-05-25T14:13:23;24.30;;;19.40;;
19836;SDS011;10079;55.740;37.662;2023-05-25T14:16:12;26.37;;;20.73;;
19836;SDS011;10079;55.740;37.662;2023-05-25T14:19:05;24.60;;;20.47;;
19836;SDS011;10079;55.740;37.662;2023-05-25T14:21:49;27.93;;;21.27;;
19836;SDS011;10079;55.740;37.662;2023-05-25T14:24:41;25.50;;;19.97;;
19836;SDS011;10079;55.740;37.662;2023-05-25T14:27:22;28.43;;;21.43;;
19836;SDS011;10079;55.740;37.662;2023-05-25T14:30:03;26.60;;;21.03;;
19836;SDS011;10079;55.740;37.662;2023-05-25T14:32:48;29.77;;;22.00;;
19836;SDS011;10079;55.740;37.662;2023-05-25T14:46:09;26.77;;;21.43;;
19836;SDS011;10079;55.740;37.662;2023-05-25T15:01:10;27.77;;;20.43;;
19836;SDS011;10079;55.740;37.662;2023-05-25T15:14:25;21.63;;;16.50;;
19836;SDS011;10079;55.740;37.662;2023-05-25T15:17:06;19.17;;;15.47;;
19836;SDS011;10079;55.740;37.662;2023-05-25T15:19:47;23.17;;;16.63;;
19836;SDS011;10079;55.740;37.662;2023-05-25T15:22:31;18.50;;;14.33;;
19836;SDS011;10079;55.740;37.662;2023-05-25T15:25:12;22.30;;;17.10;;
19836;SDS011;10079;55.740;37.662;2023-05-25T15:27:53;18.20;;;14.37;;
19836;SDS011;10079;55.740;37.662;2023-05-25T15:30:37;17.80;;;14.70;;
19836;SDS011;10079;55.740;37.662;2023-05-25T15:33:18;17.77;;;14.17;;
19836;SDS011;10079;55.740;37.662;2023-05-25T15:35:59;19.07;;;13.67;;
19836;SDS011;10079;55.740;37.662;2023-05-25T15:49:16;20.63;;;16.90;;
19836;SDS011;10079;55.740;37.662;2023-05-25T15:51:56;20.90;;;15.60;;
19836;SDS011;10079;55.740;37.662;2023-05-25T15:54:38;22.00;;;15.53;;
19836;SDS011;10079;55.740;37.662;2023-05-25T15:57:30;20.57;;;14.13;;
19836;SDS011;10079;55.740;37.662;2023-05-25T16:10:42;20.83;;;14.57;;
19836;SDS011;10079;55.740;37.662;2023-05-25T16:13:27;18.37;;;13.83;;
19836;SDS011;10079;55.740;37.662;2023-05-25T16:18:55;17.50;;;12.73;;
19836;SDS011;10079;55.740;37.662;2023-05-25T16:21:48;18.20;;;13.70;;
19836;SDS011;10079;55.740;37.662;2023-05-25T16:45:50;18.67;;;14.77;;
19836;SDS011;10079;55.740;37.662;2023-05-25T16:48:34;18.27;;;14.50;;
19836;SDS011;10079;55.740;37.662;2023-05-25T16:57:53;18.37;;;14.30;;
19836;SDS011;10079;55.740;37.662;2023-05-25T17:00:46;17.37;;;13.73;;
19836;SDS011;10079;55.740;37.662;2023-05-25T17:03:30;19.63;;;13.63;;
19836;SDS011;10079;55.740;37.662;2023-05-25T17:06:11;18.93;;;14.10;;
19836;SDS011;10079;55.740;37.662;2023-05-25T17:08:53;16.83;;;13.83;;
19836;SDS011;10079;55.740;37.662;2023-05-25T17:11:34;18.40;;;14.23;;
19836;SDS011;10079;55.740;37.662;2023-05-25T17:14:15;22.03;;;15.27;;
19836;SDS011;10079;55.740;37.662;2023-05-25T17:16:56;19.93;;;14.33;;
19836;SDS011;10079;55.740;37.662;2023-05-25T17:19:37;19.97;;;15.50;;
19836;SDS011;10079;55.740;37.662;2023-05-25T17:22:18;21.47;;;15.63;;
19836;SDS011;10079;55.740;37.662;2023-05-25T17:30:46;20.33;;;15.23;;
19836;SDS011;10079;55.740;37.662;2023-05-25T17:33:28;23.53;;;15.27;;
19836;SDS011;10079;55.740;37.662;2023-05-25T17:36:08;21.77;;;14.77;;
19836;SDS011;10079;55.740;37.662;2023-05-25T17:38:50;22.80;;;15.90;;
19836;SDS011;10079;55.740;37.662;2023-05-25T17:41:34;20.70;;;14.77;;
19836;SDS011;10079;55.740;37.662;2023-05-25T17:48:50;26.17;;;17.20;;
19836;SDS011;10079;55.740;37.662;2023-05-25T17:51:31;21.70;;;16.40;;
19836;SDS011;10079;55.740;37.662;2023-05-25T17:54:15;20.53;;;15.57;;
19836;SDS011;10079;55.740;37.662;2023-05-25T17:56:56;23.13;;;16.83;;
19836;SDS011;10079;55.740;37.662;2023-05-25T18:02:32;25.47;;;16.77;;
19836;SDS011;10079;55.740;37.662;2023-05-25T18:05:13;29.77;;;17.60;;
19836;SDS011;10079;55.740;37.662;2023-05-25T18:07:54;23.17;;;16.60;;
19836;SDS011;10079;55.740;37.662;2023-05-25T18:10:35;24.50;;;15.33;;
19836;SDS011;10079;55.740;37.662;2023-05-25T18:13:16;23.53;;;16.73;;
19836;SDS011;10079;55.740;37.662;2023-05-25T18:16:00;23.50;;;16.50;;
19836;SDS011;10079;55.740;37.662;2023-05-25T18:18:44;24.23;;;16.67;;
19836;SDS011;10079;55.740;37.662;2023-05-25T18:21:25;25.27;;;17.90;;
19836;SDS011;10079;55.740;37.662;2023-05-25T18:24:06;23.70;;;16.40;;
19836;SDS011;10079;55.740;37.662;2023-05-25T18:26:47;22.03;;;15.13;;
19836;SDS011;10079;55.740;37.662;2023-05-25T18:29:36;20.90;;;15.60;;
19836;SDS011;10079;55.740;37.662;2023-05-25T18:32:17;23.63;;;16.00;;
19836;SDS011;10079;55.740;37.662;2023-05-25T18:34:58;21.40;;;15.57;;
19836;SDS011;10079;55.740;37.662;2023-05-25T18:37:39;23.20;;;15.77;;
19836;SDS011;10079;55.740;37.662;2023-05-25T18:40:20;24.20;;;16.40;;
19836;SDS011;10079;55.740;37.662;2023-05-25T18:43:01;22.10;;;15.47;;
19836;SDS011;10079;55.740;37.662;2023-05-25T18:45:42;24.13;;;16.80;;
19836;SDS011;10079;55.740;37.662;2023-05-25T18:48:23;22.20;;;16.27;;
19836;SDS011;10079;55.740;37.662;2023-05-25T18:51:04;25.70;;;17.23;;
19836;SDS011;10079;55.740;37.662;2023-05-25T18:53:45;27.63;;;16.57;;
19836;SDS011;10079;55.740;37.662;2023-05-25T18:56:26;27.80;;;17.07;;
19836;SDS011;10079;55.740;37.662;2023-05-25T18:59:19;24.73;;;16.40;;
19836;SDS011;10079;55.740;37.662;2023-05-25T19:02:00;23.10;;;16.53;;
19836;SDS011;10079;55.740;37.662;2023-05-25T19:04:40;22.77;;;15.80;;
19836;SDS011;10079;55.740;37.662;2023-05-25T19:07:22;27.07;;;16.43;;
19836;SDS011;10079;55.740;37.662;2023-05-25T19:10:03;22.40;;;16.20;;
19836;SDS011;10079;55.740;37.662;2023-05-25T19:12:44;26.03;;;15.87;;
19836;SDS011;10079;55.740;37.662;2023-05-25T19:15:29;31.73;;;16.90;;
19836;SDS011;10079;55.740;37.662;2023-05-25T19:18:13;26.73;;;17.00;;
19836;SDS011;10079;55.740;37.662;2023-05-25T19:21:03;30.53;;;17.53;;
19836;SDS011;10079;55.740;37.662;2023-05-25T19:23:56;25.67;;;16.70;;
19836;SDS011;10079;55.740;37.662;2023-05-25T19:26:49;30.13;;;17.00;;
19836;SDS011;10079;55.740;37.662;2023-05-25T19:29:38;24.57;;;17.53;;
19836;SDS011;10079;55.740;37.662;2023-05-25T19:32:31;26.23;;;17.40;;
19836;SDS011;10079;55.740;37.662;2023-05-25T19:35:12;29.20;;;17.50;;
19836;SDS011;10079;55.740;37.662;2023-05-25T19:38:04;25.17;;;16.73;;
19836;SDS011;10079;55.740;37.662;2023-05-25T19:51:36;25.07;;;18.00;;
19836;SDS011;10079;55.740;37.662;2023-05-25T20:05:02;27.30;;;17.70;;
19836;SDS011;10079;55.740;37.662;2023-05-25T20:07:43;23.93;;;18.00;;
19836;SDS011;10079;55.740;37.662;2023-05-25T20:10:24;25.77;;;16.97;;
19836;SDS011;10079;55.740;37.662;2023-05-25T20:13:08;29.67;;;16.97;;
19836;SDS011;10079;55.740;37.662;2023-05-25T20:15:52;24.97;;;17.40;;
19836;SDS011;10079;55.740;37.662;2023-05-25T20:18:37;29.40;;;18.93;;
19836;SDS011;10079;55.740;37.662;2023-05-25T20:21:24;35.20;;;19.70;;
19836;SDS011;10079;55.740;37.662;2023-05-25T20:24:23;28.80;;;18.87;;
19836;SDS011;10079;55.740;37.662;2023-05-25T20:27:28;27.00;;;17.23;;
19836;SDS011;10079;55.740;37.662;2023-05-25T20:30:26;33.43;;;21.50;;
19836;SDS011;10079;55.740;37.662;2023-05-25T20:33:07;33.00;;;21.07;;
19836;SDS011;10079;55.740;37.662;2023-05-25T20:46:32;30.67;;;20.73;;
19836;SDS011;10079;55.740;37.662;2023-05-25T20:49:37;30.03;;;20.17;;
19836;SDS011;10079;55.740;37.662;2023-05-25T20:52:41;30.63;;;19.73;;
19836;SDS011;10079;55.740;37.662;2023-05-25T20:55:39;36.63;;;21.27;;
19836;SDS011;10079;55.740;37.662;2023-05-25T20:58:20;32.87;;;20.63;;
19836;SDS011;10079;55.740;37.662;2023-05-25T21:01:00;31.93;;;20.27;;
19836;SDS011;10079;55.740;37.662;2023-05-25T21:03:50;34.57;;;19.97;;
19836;SDS011;10079;55.740;37.662;2023-05-25T21:06:31;32.67;;;20.57;;
19836;SDS011;10079;55.740;37.662;2023-05-25T21:09:23;30.23;;;19.73;;
19836;SDS011;10079;55.740;37.662;2023-05-25T21:12:12;31.90;;;20.50;;
19836;SDS011;10079;55.740;37.662;2023-05-25T21:14:54;30.67;;;19.53;;
19836;SDS011;10079;55.740;37.662;2023-05-25T21:28:14;29.13;;;20.07;;
19836;SDS011;10079;55.740;37.662;2023-05-25T21:31:03;33.33;;;19.90;;
19836;SDS011;10079;55.740;37.662;2023-05-25T21:33:44;28.90;;;18.70;;
19836;SDS011;10079;55.740;37.662;2023-05-25T21:36:25;31.77;;;19.03;;
19836;SDS011;10079;55.740;37.662;2023-05-25T21:39:06;28.97;;;19.23;;
19836;SDS011;10079;55.740;37.662;2023-05-25T21:41:59;27.63;;;19.90;;
19836;SDS011;10079;55.740;37.662;2023-05-25T21:44:49;28.17;;;19.67;;
19836;SDS011;10079;55.740;37.662;2023-05-25T21:47:38;34.17;;;19.53;;
19836;SDS011;10079;55.740;37.662;2023-05-25T21:50:22;33.43;;;20.03;;
19836;SDS011;10079;55.740;37.662;2023-05-25T21:53:04;27.57;;;19.43;;
19836;SDS011;10079;55.740;37.662;2023-05-25T21:55:47;29.83;;;19.83;;
19836;SDS011;10079;55.740;37.662;2023-05-25T21:58:31;35.30;;;20.40;;